createdAt,value
2017-07-29T00:01:31.754Z,9.50
2017-07-29T00:03:59.252Z,8.70
2017-07-29T00:06:26.698Z,8.60
2017-07-29T00:08:54.152Z,8.10
2017-07-29T00:11:21.624Z,7.60
2017-07-29T00:13:49.122Z,8.50
2017-07-29T00:16:16.576Z,8.00
2017-07-29T00:18:44.018Z,7.47
2017-07-29T00:21:11.483Z,7.13
2017-07-29T00:23:38.937Z,8.40
2017-07-29T00:26:06.419Z,6.93
2017-07-29T00:28:34.665Z,7.10
2017-07-29T00:31:02.116Z,7.53
2017-07-29T00:33:29.676Z,8.07
2017-07-29T00:35:57.129Z,6.90
2017-07-29T00:38:24.599Z,6.20
2017-07-29T00:40:52.063Z,7.07
2017-07-29T00:43:19.519Z,6.80
2017-07-29T00:45:47.056Z,6.80
2017-07-29T00:48:14.500Z,7.03
2017-07-29T00:50:41.987Z,6.87
2017-07-29T00:53:09.448Z,6.57
2017-07-29T00:55:36.907Z,6.80
2017-07-29T00:58:04.473Z,7.57
2017-07-29T01:00:32.004Z,7.97
2017-07-29T01:02:59.471Z,6.97
2017-07-29T01:05:26.928Z,7.67
2017-07-29T01:07:54.474Z,6.87
2017-07-29T01:10:21.925Z,6.77
2017-07-29T01:12:49.375Z,6.67
2017-07-29T01:15:16.944Z,7.20
2017-07-29T01:17:44.407Z,7.50
2017-07-29T01:20:11.884Z,8.30
2017-07-29T01:22:40.095Z,9.23
2017-07-29T01:25:07.555Z,8.90
2017-07-29T01:27:35.017Z,9.63
2017-07-29T01:30:02.468Z,9.90
2017-07-29T01:32:29.964Z,9.20
2017-07-29T01:34:57.412Z,9.30
2017-07-29T01:37:24.861Z,9.00
2017-07-29T01:39:52.428Z,8.10
2017-07-29T01:42:19.879Z,8.20
2017-07-29T01:44:47.350Z,9.57
2017-07-29T01:47:14.824Z,9.17
2017-07-29T01:49:43.065Z,9.50
2017-07-29T01:52:10.551Z,8.70
2017-07-29T01:54:38.001Z,9.27
2017-07-29T01:57:05.449Z,9.60
2017-07-29T01:59:33.007Z,10.20
2017-07-29T02:02:00.444Z,9.43
2017-07-29T02:04:27.916Z,8.47
2017-07-29T02:06:55.356Z,9.03
2017-07-29T02:09:22.937Z,9.33
2017-07-29T02:11:50.507Z,8.43
2017-07-29T02:14:18.728Z,9.67
2017-07-29T02:16:46.205Z,8.67
2017-07-29T02:19:13.676Z,7.87
2017-07-29T02:21:41.228Z,8.80
2017-07-29T02:24:08.694Z,7.80
2017-07-29T02:26:36.154Z,8.23
2017-07-29T02:29:03.627Z,7.57
2017-07-29T02:31:31.882Z,8.60
2017-07-29T02:33:59.330Z,7.60
2017-07-29T02:36:26.823Z,8.57
2017-07-29T02:38:55.032Z,7.10
2017-07-29T02:41:22.496Z,6.97
2017-07-29T02:43:49.979Z,8.53
2017-07-29T02:46:17.441Z,8.27
2017-07-29T02:48:44.893Z,8.10
2017-07-29T02:51:12.457Z,7.80
2017-07-29T02:53:40.694Z,8.60
2017-07-29T02:56:08.159Z,9.00
2017-07-29T02:58:35.608Z,8.90
2017-07-29T03:01:03.071Z,9.67
2017-07-29T03:03:30.536Z,9.60
2017-07-29T03:05:57.968Z,9.30
2017-07-29T03:08:25.443Z,9.73
2017-07-29T03:10:52.888Z,9.07
2017-07-29T03:13:20.364Z,8.90
2017-07-29T03:15:47.803Z,8.37
2017-07-29T03:18:15.284Z,8.07
2017-07-29T03:20:42.741Z,8.93
2017-07-29T03:23:10.305Z,8.80
2017-07-29T03:25:37.785Z,8.70
2017-07-29T03:28:06.017Z,8.40
2017-07-29T03:30:33.487Z,10.00
2017-07-29T03:33:00.932Z,9.50
2017-07-29T03:35:28.384Z,8.30
2017-07-29T03:37:55.849Z,7.60
2017-07-29T03:40:23.296Z,8.27
2017-07-29T03:42:50.767Z,7.70
2017-07-29T03:45:18.325Z,8.70
2017-07-29T03:47:45.794Z,7.87
2017-07-29T03:50:13.268Z,6.63
2017-07-29T03:52:41.479Z,6.97
2017-07-29T03:55:08.924Z,7.30
2017-07-29T03:57:36.384Z,7.60
2017-07-29T04:00:03.828Z,7.63
2017-07-29T04:02:31.348Z,7.03
2017-07-29T04:04:59.601Z,7.07
2017-07-29T04:07:27.063Z,7.77
2017-07-29T04:09:54.528Z,7.60
2017-07-29T04:12:21.975Z,6.47
2017-07-29T04:14:49.453Z,7.13
2017-07-29T04:17:17.703Z,5.97
2017-07-29T04:19:45.148Z,6.43
2017-07-29T04:22:12.624Z,7.07
2017-07-29T04:24:40.068Z,6.50
2017-07-29T04:27:07.529Z,7.17
2017-07-29T04:29:35.000Z,6.73
2017-07-29T04:32:02.456Z,6.97
2017-07-29T04:34:29.933Z,6.67
2017-07-29T04:36:58.136Z,6.73
2017-07-29T04:39:25.636Z,6.10
2017-07-29T04:41:53.176Z,5.90
2017-07-29T04:44:20.644Z,6.40
2017-07-29T04:46:48.114Z,5.40
2017-07-29T04:49:15.561Z,6.63
2017-07-29T04:51:43.032Z,6.20
2017-07-29T04:54:11.244Z,5.93
2017-07-29T04:56:38.688Z,6.50
2017-07-29T04:59:06.180Z,6.30
2017-07-29T05:01:33.624Z,6.80
2017-07-29T05:04:01.107Z,6.20
2017-07-29T05:06:28.551Z,6.80
2017-07-29T05:08:56.029Z,6.83
2017-07-29T05:11:23.498Z,6.50
2017-07-29T05:13:50.939Z,6.17
2017-07-29T05:16:18.392Z,5.70
2017-07-29T05:18:45.847Z,5.73
2017-07-29T05:21:13.295Z,5.97
2017-07-29T05:23:40.847Z,6.37
2017-07-29T05:26:08.296Z,6.80
2017-07-29T05:28:35.793Z,6.50
2017-07-29T05:31:04.011Z,6.40
2017-07-29T05:33:31.463Z,5.70
2017-07-29T05:35:58.988Z,6.23
2017-07-29T05:38:27.191Z,6.10
2017-07-29T05:40:54.646Z,5.47
2017-07-29T05:43:22.138Z,5.80
2017-07-29T05:45:49.699Z,5.70
2017-07-29T05:48:17.156Z,5.77
2017-07-29T05:50:44.611Z,5.43
2017-07-29T05:53:12.092Z,5.53
2017-07-29T05:55:40.303Z,5.30
2017-07-29T05:58:07.756Z,6.20
2017-07-29T06:00:35.231Z,5.00
2017-07-29T06:03:02.680Z,5.20
2017-07-29T06:05:30.153Z,5.50
2017-07-29T06:07:57.603Z,5.03
2017-07-29T06:10:25.078Z,5.23
2017-07-29T06:12:52.637Z,5.30
2017-07-29T06:15:20.115Z,6.00
2017-07-29T06:17:47.562Z,5.13
2017-07-29T06:20:15.059Z,5.37
2017-07-29T06:22:42.520Z,5.23
2017-07-29T06:25:09.991Z,4.80
2017-07-29T06:27:37.443Z,5.20
2017-07-29T06:30:04.904Z,5.43
2017-07-29T06:32:32.385Z,5.30
2017-07-29T06:34:59.833Z,4.87
2017-07-29T06:37:27.406Z,4.70
2017-07-29T06:39:54.846Z,4.07
2017-07-29T06:42:22.292Z,4.23
2017-07-29T06:44:49.760Z,4.20
2017-07-29T06:47:17.204Z,4.00
2017-07-29T06:49:44.675Z,3.80
2017-07-29T06:52:12.139Z,4.17
2017-07-29T06:54:39.581Z,3.70
2017-07-29T06:57:07.144Z,4.07
2017-07-29T06:59:34.634Z,3.80
2017-07-29T07:02:02.073Z,4.07
2017-07-29T07:04:29.547Z,3.47
2017-07-29T07:06:57.020Z,3.70
2017-07-29T07:09:25.273Z,3.03
2017-07-29T07:11:52.727Z,3.70
2017-07-29T07:14:20.242Z,3.30
2017-07-29T07:16:47.713Z,3.20
2017-07-29T07:19:15.191Z,3.03
2017-07-29T07:21:42.641Z,3.70
2017-07-29T07:24:10.099Z,3.37
2017-07-29T07:26:37.575Z,3.23
2017-07-29T07:29:05.867Z,2.80
2017-07-29T07:31:34.071Z,3.73
2017-07-29T07:34:01.565Z,3.50
2017-07-29T07:36:29.033Z,3.20
2017-07-29T07:38:56.479Z,2.80
2017-07-29T07:41:24.029Z,2.83
2017-07-29T07:43:51.489Z,2.73
2017-07-29T07:46:18.988Z,3.20
2017-07-29T07:48:46.576Z,3.20
2017-07-29T07:51:14.023Z,3.23
2017-07-29T07:53:41.498Z,2.73
2017-07-29T07:56:08.957Z,2.93
2017-07-29T07:58:36.440Z,2.67
2017-07-29T08:01:03.911Z,3.07
2017-07-29T08:03:32.126Z,3.00
2017-07-29T08:05:59.561Z,3.20
2017-07-29T08:08:27.038Z,2.60
2017-07-29T08:10:54.488Z,2.17
2017-07-29T08:13:21.945Z,3.00
2017-07-29T08:15:49.449Z,2.60
2017-07-29T08:18:16.906Z,2.40
2017-07-29T08:20:44.330Z,1.73
2017-07-29T08:23:11.880Z,1.80
2017-07-29T08:25:39.365Z,2.13
2017-07-29T08:28:06.847Z,1.90
2017-07-29T08:30:35.102Z,2.40
2017-07-29T08:33:02.567Z,2.03
2017-07-29T08:35:30.037Z,2.10
2017-07-29T08:37:58.286Z,2.70
2017-07-29T08:40:25.769Z,1.70
2017-07-29T08:42:53.984Z,2.30
2017-07-29T08:45:21.484Z,2.20
2017-07-29T08:47:49.696Z,2.00
2017-07-29T08:50:17.147Z,2.83
2017-07-29T08:52:44.612Z,2.47
2017-07-29T08:55:12.054Z,2.47
2017-07-29T08:57:39.550Z,2.40
2017-07-29T09:00:07.046Z,2.07
2017-07-29T09:02:35.301Z,2.53
2017-07-29T09:05:02.928Z,3.17
2017-07-29T09:07:30.371Z,2.60
2017-07-29T09:09:57.900Z,2.77
2017-07-29T09:12:26.156Z,2.63
2017-07-29T09:14:53.611Z,2.50
2017-07-29T09:17:21.102Z,2.40
2017-07-29T09:19:49.324Z,2.13
2017-07-29T09:22:16.852Z,1.90
2017-07-29T09:24:44.349Z,2.90
2017-07-29T09:27:11.795Z,2.40
2017-07-29T09:29:39.267Z,2.10
2017-07-29T09:32:06.746Z,2.17
2017-07-29T09:34:34.993Z,1.77
2017-07-29T09:37:02.572Z,2.60
2017-07-29T09:39:30.059Z,2.50
2017-07-29T09:41:57.522Z,2.13
2017-07-29T09:44:24.963Z,2.30
2017-07-29T09:46:52.458Z,2.17
2017-07-29T09:49:19.900Z,2.40
2017-07-29T09:51:47.371Z,2.43
2017-07-29T09:54:14.844Z,2.60
2017-07-29T09:56:42.305Z,2.13
2017-07-29T09:59:09.777Z,2.53
2017-07-29T10:01:37.988Z,3.00
2017-07-29T10:04:05.533Z,2.50
2017-07-29T10:06:33.744Z,2.80
2017-07-29T10:09:01.231Z,2.37
2017-07-29T10:11:28.717Z,2.70
2017-07-29T10:13:56.215Z,2.10
2017-07-29T10:16:23.791Z,2.70
2017-07-29T10:18:51.254Z,3.00
2017-07-29T10:21:18.724Z,2.30
2017-07-29T10:23:46.284Z,2.47
2017-07-29T10:26:13.735Z,2.50
2017-07-29T10:28:42.005Z,2.50
2017-07-29T10:31:09.457Z,2.33
2017-07-29T10:33:37.027Z,3.10
2017-07-29T10:36:04.501Z,2.40
2017-07-29T10:38:32.711Z,2.80
2017-07-29T10:41:00.207Z,2.40
2017-07-29T10:43:27.656Z,3.27
2017-07-29T10:45:55.144Z,3.27
2017-07-29T10:48:23.808Z,2.60
2017-07-29T10:50:52.080Z,2.43
2017-07-29T10:53:19.651Z,3.70
2017-07-29T10:55:47.900Z,2.57
2017-07-29T10:58:15.379Z,2.37
2017-07-29T11:00:42.818Z,2.80
2017-07-29T11:03:10.271Z,2.93
2017-07-29T11:05:37.745Z,2.97
2017-07-29T11:08:06.018Z,2.60
2017-07-29T11:10:33.475Z,2.77
2017-07-29T11:13:01.723Z,3.27
2017-07-29T11:15:29.199Z,3.03
2017-07-29T11:17:56.751Z,3.20
2017-07-29T11:20:24.196Z,2.57
2017-07-29T11:22:51.653Z,2.80
2017-07-29T11:25:19.144Z,2.50
2017-07-29T11:27:47.368Z,2.40
2017-07-29T11:30:14.811Z,2.90
2017-07-29T11:32:42.298Z,2.70
2017-07-29T11:35:09.756Z,2.23
2017-07-29T11:37:37.240Z,2.43
2017-07-29T11:40:05.455Z,2.73
2017-07-29T11:42:32.946Z,2.77
2017-07-29T11:45:00.427Z,2.60
2017-07-29T11:47:28.771Z,3.03
2017-07-29T11:49:56.234Z,2.50
2017-07-29T11:52:23.706Z,2.67
2017-07-29T11:54:51.180Z,2.50
2017-07-29T11:57:19.442Z,2.20
2017-07-29T11:59:46.985Z,2.33
2017-07-29T12:02:14.431Z,2.30
2017-07-29T12:04:41.895Z,2.50
2017-07-29T12:07:09.361Z,2.90
2017-07-29T12:09:36.834Z,2.60
2017-07-29T12:12:05.056Z,2.47
2017-07-29T12:14:32.508Z,2.63
2017-07-29T12:16:59.990Z,2.40
2017-07-29T12:19:27.453Z,1.90
2017-07-29T12:21:54.913Z,2.77
2017-07-29T12:24:22.434Z,2.40
2017-07-29T12:26:49.941Z,2.13
2017-07-29T12:29:18.155Z,2.80
2017-07-29T12:31:45.644Z,2.13
2017-07-29T12:34:13.103Z,2.30
2017-07-29T12:36:40.572Z,2.30
2017-07-29T12:39:08.811Z,2.03
2017-07-29T12:41:36.267Z,2.27
2017-07-29T12:44:03.745Z,1.87
2017-07-29T12:46:31.195Z,1.90
2017-07-29T12:48:58.728Z,2.57
2017-07-29T12:51:26.182Z,2.07
2017-07-29T12:53:53.640Z,2.37
2017-07-29T12:56:21.139Z,2.00
2017-07-29T12:58:48.594Z,2.07
2017-07-29T13:01:16.032Z,2.40
2017-07-29T13:03:43.509Z,2.40
2017-07-29T13:06:10.996Z,2.03
2017-07-29T13:08:38.516Z,1.70
2017-07-29T13:11:05.984Z,2.50
2017-07-29T13:13:33.520Z,2.07
2017-07-29T13:16:01.033Z,2.27
2017-07-29T13:18:28.475Z,2.00
2017-07-29T13:20:56.767Z,2.37
2017-07-29T13:23:24.207Z,2.50
2017-07-29T13:25:51.660Z,1.63
2017-07-29T13:28:19.132Z,2.37
2017-07-29T13:30:46.630Z,1.90
2017-07-29T13:33:14.078Z,2.50
2017-07-29T13:35:41.562Z,1.93
2017-07-29T13:38:09.103Z,1.83
2017-07-29T13:40:36.561Z,2.53
2017-07-29T13:43:04.033Z,2.57
2017-07-29T13:45:31.481Z,2.00
2017-07-29T13:47:58.931Z,1.97
2017-07-29T13:50:26.403Z,2.50
2017-07-29T13:52:53.847Z,1.87
2017-07-29T13:55:21.314Z,2.30
2017-07-29T13:57:48.771Z,2.13
2017-07-29T14:00:16.308Z,2.17
2017-07-29T14:02:43.788Z,2.83
2017-07-29T14:05:11.228Z,2.03
2017-07-29T14:07:38.687Z,2.10
2017-07-29T14:10:06.279Z,2.20
2017-07-29T14:12:34.630Z,1.87
2017-07-29T14:15:02.088Z,2.30
2017-07-29T14:17:29.548Z,2.00
2017-07-29T14:19:57.040Z,2.00
2017-07-29T14:22:24.488Z,1.83
2017-07-29T14:24:51.960Z,2.43
2017-07-29T14:27:19.436Z,2.43
2017-07-29T14:29:46.915Z,2.03
2017-07-29T14:32:14.381Z,2.00
2017-07-29T14:34:41.930Z,2.00
2017-07-29T14:37:09.482Z,1.97
2017-07-29T14:39:36.931Z,1.80
2017-07-29T14:42:04.382Z,1.60
2017-07-29T14:44:31.843Z,2.00
2017-07-29T14:46:59.315Z,2.00
2017-07-29T14:49:26.787Z,2.20
2017-07-29T14:51:54.257Z,2.00
2017-07-29T14:54:22.491Z,1.73
2017-07-29T14:56:49.958Z,2.00
2017-07-29T14:59:17.428Z,2.13
2017-07-29T15:01:44.879Z,1.70
2017-07-29T15:04:12.438Z,2.40
2017-07-29T15:06:39.885Z,1.90
2017-07-29T15:09:07.332Z,2.40
2017-07-29T15:11:34.791Z,2.20
2017-07-29T15:14:02.303Z,1.70
2017-07-29T15:16:29.827Z,2.00
2017-07-29T15:18:57.264Z,2.23
2017-07-29T15:21:24.724Z,2.33
2017-07-29T15:23:52.201Z,3.10
2017-07-29T15:26:20.402Z,2.37
2017-07-29T15:28:47.885Z,2.27
2017-07-29T15:31:15.371Z,3.23
2017-07-29T15:33:42.837Z,2.10
2017-07-29T15:36:10.332Z,1.83
2017-07-29T15:38:37.855Z,2.13
2017-07-29T15:41:05.290Z,1.97
2017-07-29T15:43:32.774Z,6.70
2017-07-29T15:46:01.016Z,2.47
2017-07-29T15:48:28.460Z,1.80
2017-07-29T15:50:55.935Z,7.27
2017-07-29T15:53:23.405Z,4.47
2017-07-29T15:55:50.858Z,2.60
2017-07-29T15:58:18.351Z,2.70
2017-07-29T16:00:45.856Z,2.37
2017-07-29T16:03:13.428Z,2.50
2017-07-29T16:05:40.871Z,1.70
2017-07-29T16:08:08.330Z,1.93
2017-07-29T16:10:35.832Z,3.33
2017-07-29T16:13:04.047Z,2.03
2017-07-29T16:15:31.635Z,2.40
2017-07-29T16:17:59.092Z,2.00
2017-07-29T16:20:26.558Z,2.10
2017-07-29T16:22:54.780Z,1.57
2017-07-29T16:25:23.328Z,2.37
2017-07-29T16:27:50.829Z,2.40
2017-07-29T16:30:18.302Z,1.87
2017-07-29T16:32:45.776Z,1.90
2017-07-29T16:35:13.231Z,2.33
2017-07-29T16:37:41.469Z,1.63
2017-07-29T16:40:08.953Z,1.83
2017-07-29T16:42:36.396Z,2.43
2017-07-29T16:45:03.961Z,2.07
2017-07-29T16:47:31.423Z,2.30
2017-07-29T16:49:58.856Z,1.87
2017-07-29T16:52:26.338Z,2.00
2017-07-29T16:54:54.157Z,1.80
2017-07-29T16:57:21.617Z,1.97
2017-07-29T16:59:49.077Z,2.10
2017-07-29T17:02:16.559Z,1.73
2017-07-29T17:04:44.038Z,1.90
2017-07-29T17:07:12.268Z,2.00
2017-07-29T17:09:39.757Z,1.73
2017-07-29T17:12:07.235Z,1.60
2017-07-29T17:14:37.211Z,2.30
2017-07-29T17:17:04.934Z,2.67
2017-07-29T17:19:32.562Z,3.77
2017-07-29T17:22:00.039Z,3.30
2017-07-29T17:24:27.501Z,2.60
2017-07-29T17:26:54.968Z,2.93
2017-07-29T17:29:22.462Z,2.40
2017-07-29T17:31:49.938Z,1.70
2017-07-29T17:34:17.446Z,2.10
2017-07-29T17:36:44.928Z,1.80
2017-07-29T17:39:12.498Z,1.90
2017-07-29T17:41:39.963Z,2.00
2017-07-29T17:44:07.407Z,1.60
2017-07-29T17:46:34.888Z,1.80
2017-07-29T17:49:03.103Z,1.57
2017-07-29T17:51:30.599Z,2.23
2017-07-29T17:53:58.052Z,2.67
2017-07-29T17:56:25.516Z,4.10
2017-07-29T17:58:53.072Z,3.60
2017-07-29T18:01:20.540Z,3.40
2017-07-29T18:03:47.981Z,3.57
2017-07-29T18:06:15.456Z,4.60
2017-07-29T18:08:42.922Z,3.97
2017-07-29T18:11:11.228Z,3.67
2017-07-29T18:13:38.689Z,3.53
2017-07-29T18:16:06.159Z,3.40
2017-07-29T18:18:33.632Z,3.20
2017-07-29T18:21:01.152Z,2.67
2017-07-29T18:23:28.651Z,3.47
2017-07-29T18:25:56.163Z,3.57
2017-07-29T18:28:23.638Z,3.50
2017-07-29T18:30:51.088Z,3.73
2017-07-29T18:33:18.573Z,2.97
2017-07-29T18:35:46.060Z,2.63
2017-07-29T18:38:14.282Z,3.33
2017-07-29T18:40:41.744Z,3.07
2017-07-29T18:43:09.200Z,3.30
2017-07-29T18:45:36.656Z,2.90
2017-07-29T18:48:04.234Z,3.13
2017-07-29T18:50:31.701Z,2.90
2017-07-29T18:52:59.175Z,3.20
2017-07-29T18:55:27.539Z,3.57
2017-07-29T18:57:54.986Z,3.17
2017-07-29T19:00:22.564Z,2.87
2017-07-29T19:02:50.021Z,3.50
2017-07-29T19:05:18.245Z,3.00
2017-07-29T19:07:45.776Z,3.90
2017-07-29T19:10:13.220Z,3.30
2017-07-29T19:12:40.677Z,3.73
2017-07-29T19:15:08.385Z,4.20
2017-07-29T19:17:35.863Z,3.87
2017-07-29T19:20:03.429Z,4.50
2017-07-29T19:22:30.928Z,3.70
2017-07-29T19:24:58.365Z,3.60
2017-07-29T19:27:26.639Z,3.63
2017-07-29T19:29:54.858Z,3.40
2017-07-29T19:32:22.343Z,4.13
2017-07-29T19:34:49.894Z,4.53
2017-07-29T19:37:17.367Z,3.93
2017-07-29T19:39:44.914Z,4.07
2017-07-29T19:42:12.383Z,4.17
2017-07-29T19:44:39.873Z,4.50
2017-07-29T19:47:07.344Z,4.37
2017-07-29T19:49:34.801Z,4.03
2017-07-29T19:52:02.289Z,3.47
2017-07-29T19:54:29.731Z,4.67
2017-07-29T19:56:57.198Z,4.67
2017-07-29T19:59:24.711Z,4.57
2017-07-29T20:01:52.150Z,3.90
2017-07-29T20:04:20.420Z,4.43
2017-07-29T20:06:48.768Z,4.50
2017-07-29T20:09:16.260Z,4.00
2017-07-29T20:11:43.718Z,5.03
2017-07-29T20:14:11.936Z,5.10
2017-07-29T20:16:39.410Z,5.30
2017-07-29T20:19:06.864Z,4.83
2017-07-29T20:21:34.321Z,5.60
2017-07-29T20:24:01.817Z,4.37
2017-07-29T20:26:30.024Z,5.10
2017-07-29T20:28:57.479Z,5.03
2017-07-29T20:31:24.976Z,5.27
2017-07-29T20:33:52.426Z,5.80
2017-07-29T20:36:19.929Z,5.77
2017-07-29T20:38:47.380Z,5.60
2017-07-29T20:41:14.864Z,5.33
2017-07-29T20:43:42.321Z,5.80
2017-07-29T20:46:09.816Z,5.80
2017-07-29T20:48:37.289Z,5.10
2017-07-29T20:51:05.513Z,6.00
2017-07-29T20:53:32.986Z,5.80
2017-07-29T20:56:00.440Z,5.10
2017-07-29T20:58:27.889Z,5.50
2017-07-29T21:00:55.371Z,5.97
2017-07-29T21:03:23.615Z,5.20
2017-07-29T21:05:51.115Z,6.07
2017-07-29T21:08:19.344Z,5.93
2017-07-29T21:10:46.813Z,5.33
2017-07-29T21:13:14.297Z,6.53
2017-07-29T21:15:42.547Z,6.43
2017-07-29T21:18:10.012Z,6.07
2017-07-29T21:20:37.488Z,6.53
2017-07-29T21:23:04.948Z,5.97
2017-07-29T21:25:33.200Z,5.47
2017-07-29T21:28:00.896Z,6.07
2017-07-29T21:30:29.114Z,5.97
2017-07-29T21:32:56.581Z,6.27
2017-07-29T21:35:24.067Z,6.20
2017-07-29T21:37:52.291Z,5.20
2017-07-29T21:40:19.760Z,6.00
2017-07-29T21:42:47.340Z,6.50
2017-07-29T21:45:14.777Z,6.43
2017-07-29T21:47:42.241Z,6.30
2017-07-29T21:50:09.700Z,6.07
2017-07-29T21:52:37.175Z,6.77
2017-07-29T21:55:04.649Z,6.30
2017-07-29T21:57:32.875Z,6.73
2017-07-29T22:00:00.399Z,6.10
2017-07-29T22:02:27.933Z,6.27
2017-07-29T22:04:56.300Z,6.27
2017-07-29T22:07:23.766Z,6.80
2017-07-29T22:09:51.971Z,6.10
2017-07-29T22:12:19.459Z,6.83
2017-07-29T22:14:46.923Z,5.87
2017-07-29T22:17:14.383Z,6.77
2017-07-29T22:19:41.856Z,6.27
2017-07-29T22:22:10.061Z,6.30
2017-07-29T22:24:37.523Z,6.67
2017-07-29T22:27:04.985Z,6.20
2017-07-29T22:29:32.468Z,5.10
2017-07-29T22:31:59.951Z,6.40
2017-07-29T22:34:27.423Z,6.90
2017-07-29T22:36:55.761Z,10.17
2017-07-29T22:39:23.207Z,6.37
2017-07-29T22:41:50.796Z,5.70
2017-07-29T22:44:18.255Z,5.40
2017-07-29T22:46:45.701Z,7.03
2017-07-29T22:49:13.217Z,5.53
2017-07-29T22:51:40.672Z,5.97
2017-07-29T22:54:08.132Z,6.00
2017-07-29T22:56:35.626Z,5.40
2017-07-29T22:59:03.078Z,4.90
2017-07-29T23:01:30.519Z,4.93
2017-07-29T23:03:57.973Z,6.27
2017-07-29T23:06:25.423Z,6.00
2017-07-29T23:08:52.999Z,5.60
2017-07-29T23:11:20.455Z,5.73
2017-07-29T23:13:47.915Z,6.10
2017-07-29T23:16:15.475Z,6.50
2017-07-29T23:18:42.925Z,5.90
2017-07-29T23:21:10.389Z,5.37
2017-07-29T23:23:37.872Z,6.37
2017-07-29T23:26:06.116Z,5.00
2017-07-29T23:28:33.551Z,5.80
2017-07-29T23:31:01.024Z,5.83
2017-07-29T23:33:28.493Z,6.37
2017-07-29T23:35:56.064Z,6.20
2017-07-29T23:38:24.317Z,5.50
2017-07-29T23:40:51.794Z,5.30
2017-07-29T23:43:20.008Z,5.30
2017-07-29T23:45:47.463Z,5.43
2017-07-29T23:48:14.923Z,5.70
2017-07-29T23:50:42.381Z,6.00
2017-07-29T23:53:09.876Z,6.50
2017-07-29T23:55:37.315Z,6.80
2017-07-29T23:58:04.784Z,6.30
